• Join FlightAware (Why Join?)
  • Login
  • US Flag 
06:44AM EDT


 

Airport Tracker/Info


-or-


 

Live Flight TrackerFlight Track Log ✈ CTL18 ✈ 23-Jul-2013 ✈ KYIP - KBKL

Flight Track Log - Related Links

Times and Time Zones

All times are in EDT time to prevent confusion due to time zone crossing. See the CTL18 flight status page for this flight to view local times or setup timezone preferences in your user account.

Time Position Orientation Groundspeed Altitude Reporting Facility
EDT Latitude Longitude Course Direction KTS MPH feet Rate Location/Type
08:40PM 42.2589 -83.5656 295° West 104 120 2,300  Level Cleveland Center
08:41PM 42.2769 -83.5972 308° West 101 116 3,600 900 Climbing Cleveland Center
08:42PM 42.2717 -83.5550 100° East 156 180 4,300 600 Climbing Cleveland Center
08:43PM 42.2442 -83.4919 120° Southeast 170 196 5,000 300 Climbing Cleveland Center
08:44PM 42.2242 -83.4517 124° Southeast 189 217 4,900  Descending Cleveland Center
08:45PM 42.1284 -83.2393 101° East  Level Estimated
08:45PM 42.1886 -83.3772 123° Southeast 194 223 5,000  Level Cleveland Center
08:46PM 42.1631 -83.3172 120° Southeast 193 222 5,000  Level Cleveland Center
08:47PM 42.1353 -83.2544 121° Southeast 192 221 5,000  Level Cleveland Center
08:48PM 42.1136 -83.2003 118° Southeast 193 222 5,000  Level Cleveland Center
08:49PM 42.0878 -83.1350 118° Southeast 193 222 5,000  Level Cleveland Center
08:50PM 42.0583 -83.0583 117° Southeast 194 223 5,000  Level Cleveland Center
08:51PM 42.0325 -82.9958 119° Southeast 194 223 5,000  Level Cleveland Center
08:52PM 42.0186 -82.9617 119° Southeast 194 223 5,000  Level Cleveland Center
08:52PM 42.0067 -82.9306 117° Southeast 193 222 5,000  Level Cleveland Center
08:53PM 41.9869 -82.8794 117° Southeast 190 219 5,000  Level Cleveland Center
08:54PM 41.9592 -82.8086 118° Southeast 192 221 5,100  Climbing Cleveland Center
08:56PM 41.9253 -82.7267 119° Southeast 190 219 5,100  Level Cleveland Center
08:57PM 41.9014 -82.6644 117° Southeast 189 217 5,100  Level Cleveland Center
08:58PM 41.8714 -82.5964 121° Southeast 192 221 5,200  Climbing Cleveland Center
08:59PM 41.8456 -82.5258 116° Southeast 196 226 5,200 -60 Level Cleveland Center
08:59PM 41.8294 -82.4808 116° Southeast 196 226 5,100 -60 Descending Cleveland Center
09:00PM 41.8036 -82.4189 119° Southeast 196 226 5,100  Level Cleveland Center
09:02PM 41.7714 -82.3344 117° Southeast 196 226 5,100 -60 Level Cleveland Center
09:03PM 41.7411 -82.2694 122° Southeast 196 226 5,000  Descending Cleveland Center
09:04PM 41.7089 -82.1964 121° Southeast 195 224 5,100 -240 Climbing Cleveland Center
09:05PM 41.6867 -82.1375 117° Southeast 198 228 4,600 -600 Descending Cleveland Center
09:06PM 41.6667 -82.0786 114° Southeast 218 251 4,100 -660 Descending Cleveland Center
09:07PM 41.6342 -82.0028 120° Southeast 210 242 3,400 -540 Descending Cleveland Center
09:08PM 41.6100 -81.9439 119° Southeast 207 238 3,100 -360 Descending Cleveland Center
09:09PM 41.5878 -81.8797 115° Southeast 190 219 2,800 -480 Descending Cleveland Center
09:10PM 41.5553 -81.8069 121° Southeast 196 226 2,100 -600 Descending Cleveland Center
09:11PM 41.5244 -81.7536 128° Southeast 173 199 1,600 -540 Descending Cleveland Center